Observation data for Saint Lawrence on 03/09/2018      Previous  Date       Current Mesonet Observations  Soil Data  Daily Summary Page  Observations in Plain Language
KST1 090600Z 16010KT 10/M03 A2995 RMK A01 T00961025  RH  043%=      5-min Rain = 0
KST1 090605Z 17010KT 10/M03 A2995 RMK A01 T00951025  RH  043%=      5-min Rain = 0
KST1 090610Z 16010KT 09/M03 A2995 RMK A01 T00941025  RH  044%=      5-min Rain = 0
KST1 090615Z 16009KT 09/M02 A2995 RMK A01 T00941024  RH  044%=      5-min Rain = 0
KST1 090620Z 15009KT 09/M02 A2995 RMK A01 T00911024  RH  045%=      5-min Rain = 0
KST1 090625Z 16010KT 09/M02 A2995 RMK A01 T00931020  RH  046%=      5-min Rain = 0
KST1 090630Z 17012KT 10/M01 A2994 RMK A01 T00991014  RH  046%=      5-min Rain = 0
KST1 090635Z 17012KT 10/M01 A2994 RMK A01 T01041010  RH  046%=      5-min Rain = 0
KST1 090640Z 17013KT 11/M01 A2994 RMK A01 T01091006  RH  046%=      5-min Rain = 0
KST1 090645Z 17013KT 11/M00 A2994 RMK A01 T01101004  RH  046%=      5-min Rain = 0
KST1 090650Z 17013KT 11/M00 A2994 RMK A01 T01101002  RH  046%=      5-min Rain = 0
KST1 090655Z 17013KT 11/M00 A2994 RMK A01 T01101001  RH  047%=      5-min Rain = 0
KST1 090700Z 17013KT 11/00 A2994 RMK A01 T01110001  RH  047%=      5-min Rain = 0
KST1 090705Z 18014KT 11/00 A2994 RMK A01 T01110004  RH  048%=      5-min Rain = 0
KST1 090710Z 18013KT 11/01 A2994 RMK A01 T01110005  RH  049%=      5-min Rain = 0
KST1 090715Z 18013KT 11/01 A2993 RMK A01 T01120007  RH  049%=      5-min Rain = 0
KST1 090720Z 18013KT 11/01 A2993 RMK A01 T01130009  RH  050%=      5-min Rain = 0
KST1 090725Z 18013KT 11/01 A2993 RMK A01 T01130011  RH  050%=      5-min Rain = 0
KST1 090730Z 18014KT 12/01 A2993 RMK A01 T01150014  RH  051%=      5-min Rain = 0
KST1 090735Z 17015G20KT 12/02 A2993 RMK A01 T01160017  RH  051%=      5-min Rain = 0
KST1 090740Z 18017KT 12/02 A2992 RMK A01 T01190020  RH  051%=      5-min Rain = 0
KST1 090745Z 18017G22KT 12/02 A2992 RMK A01 T01200022  RH  052%=      5-min Rain = 0
KST1 090750Z 18017KT 12/02 A2992 RMK A01 T01190023  RH  052%=      5-min Rain = 0
KST1 090755Z 18017KT 12/03 A2992 RMK A01 T01190025  RH  053%=      5-min Rain = 0
KST1 090800Z 18017KT 12/03 A2992 RMK A01 T01190026  RH  054%=      5-min Rain = 0
KST1 090805Z 18016KT 12/03 A2991 RMK A01 T01180027  RH  054%=      5-min Rain = 0
KST1 090810Z 18016KT 12/03 A2991 RMK A01 T01170028  RH  055%=      5-min Rain = 0
KST1 090815Z 18016KT 12/03 A2991 RMK A01 T01160028  RH  055%=      5-min Rain = 0
KST1 090820Z 18016KT 12/03 A2991 RMK A01 T01160030  RH  056%=      5-min Rain = 0
KST1 090825Z 18017KT 12/03 A299 RMK A01 T01160031  RH  057%=      5-min Rain = 0
KST1 090830Z 18017KT 12/03 A299 RMK A01 T01170033  RH  057%=      5-min Rain = 0
KST1 090835Z 18017KT 12/03 A299 RMK A01 T01160034  RH  058%=      5-min Rain = 0
KST1 090840Z 18016KT 12/04 A299 RMK A01 T01160036  RH  058%=      5-min Rain = 0
KST1 090845Z 18016KT 12/04 A299 RMK A01 T01150036  RH  059%=      5-min Rain = 0
KST1 090850Z 18016KT 12/04 A299 RMK A01 T01150038  RH  060%=      5-min Rain = 0
KST1 090855Z 18016KT 12/04 A299 RMK A01 T01150039  RH  060%=      5-min Rain = 0
KST1 090900Z 18016KT 12/04 A299 RMK A01 T01150040  RH  061%=      5-min Rain = 0
KST1 090905Z 18016KT 11/04 A299 RMK A01 T01140040  RH  061%=      5-min Rain = 0
KST1 090910Z 18017KT 11/04 A299 RMK A01 T01140041  RH  062%=      5-min Rain = 0
KST1 090915Z 18017KT 11/04 A299 RMK A01 T01130042  RH  062%=      5-min Rain = 0
KST1 090920Z 18016G21KT 11/04 A299 RMK A01 T01130043  RH  063%=      5-min Rain = 0
KST1 090925Z 18016G21KT 11/04 A2989 RMK A01 T01130044  RH  063%=      5-min Rain = 0
KST1 090930Z 18015G20KT 11/04 A2989 RMK A01 T01110044  RH  064%=      5-min Rain = 0
KST1 090935Z 18015KT 11/05 A2989 RMK A01 T01110045  RH  065%=      5-min Rain = 0
KST1 090940Z 18015KT 11/05 A2989 RMK A01 T01100045  RH  065%=      5-min Rain = 0
KST1 090945Z 18015KT 11/05 A2989 RMK A01 T01090046  RH  066%=      5-min Rain = 0
KST1 090950Z 18015KT 11/05 A2989 RMK A01 T01080046  RH  066%=      5-min Rain = 0
KST1 090955Z 18015KT 11/05 A2989 RMK A01 T01080047  RH  067%=      5-min Rain = 0
KST1 091000Z 18015KT 11/05 A2989 RMK A01 T01070047  RH  067%=      5-min Rain = 0
KST1 091005Z 18016KT 11/05 A2988 RMK A01 T01080049  RH  068%=      5-min Rain = 0
KST1 091010Z 18016KT 11/05 A2988 RMK A01 T01070049  RH  068%=      5-min Rain = 0
KST1 091015Z 18016KT 11/05 A2988 RMK A01 T01060050  RH  069%=      5-min Rain = 0
KST1 091020Z 18015G20KT 11/05 A2988 RMK A01 T01050050  RH  070%=      5-min Rain = 0
KST1 091025Z 18014KT 10/05 A2988 RMK A01 T01040050  RH  070%=      5-min Rain = 0
KST1 091030Z 18014KT 10/05 A2988 RMK A01 T01040051  RH  071%=      5-min Rain = 0
KST1 091035Z 18014KT 10/05 A2988 RMK A01 T01030052  RH  071%=      5-min Rain = 0
KST1 091040Z 18013KT 10/05 A2988 RMK A01 T01020052  RH  072%=      5-min Rain = 0
KST1 091045Z 18013KT 10/05 A2988 RMK A01 T01010052  RH  073%=      5-min Rain = 0
KST1 091050Z 18015KT 10/05 A2988 RMK A01 T01020053  RH  073%=      5-min Rain = 0
KST1 091055Z 18014KT 10/05 A2988 RMK A01 T01010053  RH  074%=      5-min Rain = 0
KST1 091100Z 18015KT 10/05 A2987 RMK A01 T01000054  RH  074%=      5-min Rain = 0
KST1 091105Z 18014KT 10/06 A2987 RMK A01 T01000055  RH  074%=      5-min Rain = 0
KST1 091110Z 18014G19KT 10/06 A2987 RMK A01 T00990055  RH  075%=      5-min Rain = 0
KST1 091115Z 18013KT 10/06 A2987 RMK A01 T00990055  RH  075%=      5-min Rain = 0
KST1 091120Z 18013KT 10/06 A2987 RMK A01 T00980055  RH  076%=      5-min Rain = 0
KST1 091125Z 18013KT 10/06 A2988 RMK A01 T00980056  RH  076%=      5-min Rain = 0
KST1 091130Z 18012KT 10/06 A2988 RMK A01 T00970056  RH  077%=      5-min Rain = 0
KST1 091135Z 18013KT 10/06 A2988 RMK A01 T00970057  RH  077%=      5-min Rain = 0
KST1 091140Z 18012KT 10/06 A2988 RMK A01 T00960057  RH  078%=      5-min Rain = 0
KST1 091145Z 18012KT 10/06 A2988 RMK A01 T00950057  RH  078%=      5-min Rain = 0
KST1 091150Z 18012KT 09/06 A2988 RMK A01 T00940057  RH  079%=      5-min Rain = 0
KST1 091155Z 18012KT 09/06 A2988 RMK A01 T00940057  RH  079%=      5-min Rain = 0
KST1 091200Z 18011KT 09/06 A2988 RMK A01 T00930057  RH  080%=      5-min Rain = 0
KST1 091205Z 18011KT 09/06 A2988 RMK A01 T00920057  RH  080%=      5-min Rain = 0
KST1 091210Z 18012KT 09/06 A2988 RMK A01 T00920058  RH  081%=      5-min Rain = 0
KST1 091215Z 18011KT 09/06 A2988 RMK A01 T00910058  RH  081%=      5-min Rain = 0
KST1 091220Z 18012KT 09/06 A2988 RMK A01 T00910059  RH  081%=      5-min Rain = 0
KST1 091225Z 18011KT 09/06 A2988 RMK A01 T00900059  RH  082%=      5-min Rain = 0
KST1 091230Z 17010KT 09/06 A2988 RMK A01 T00900059  RH  082%=      5-min Rain = 0
KST1 091235Z 17008KT 09/06 A2988 RMK A01 T00890058  RH  083%=      5-min Rain = 0
KST1 091240Z 17009KT 09/06 A2988 RMK A01 T00880059  RH  083%=      5-min Rain = 0
KST1 091245Z 17010KT 09/06 A2988 RMK A01 T00880059  RH  084%=      5-min Rain = 0
KST1 091250Z 17010KT 09/06 A2989 RMK A01 T00870059  RH  084%=      5-min Rain = 0
KST1 091255Z 17010KT 09/06 A2989 RMK A01 T00860059  RH  084%=      5-min Rain = 0
KST1 091300Z 17009KT 09/06 A2989 RMK A01 T00860059  RH  084%=      5-min Rain = 0
KST1 091305Z 16009KT 08/06 A2989 RMK A01 T00840058  RH  085%=      5-min Rain = 0
KST1 091310Z 17009KT 08/06 A2989 RMK A01 T00840058  RH  085%=      5-min Rain = 0
KST1 091315Z 17009KT 08/06 A2989 RMK A01 T00840059  RH  086%=      5-min Rain = 0
KST1 091320Z 17009KT 08/06 A2989 RMK A01 T00840060  RH  086%=      5-min Rain = 0
KST1 091325Z 17010KT 08/06 A2989 RMK A01 T00840060  RH  086%=      5-min Rain = 0
KST1 091330Z 17010KT 09/06 A2989 RMK A01 T00850061  RH  086%=      5-min Rain = 0
KST1 091335Z 18010KT 09/06 A2989 RMK A01 T00860062  RH  086%=      5-min Rain = 0
KST1 091340Z 18009KT 09/06 A2989 RMK A01 T00870063  RH  086%=      5-min Rain = 0
KST1 091345Z 18009KT 09/07 A2989 RMK A01 T00890065  RH  086%=      5-min Rain = 0
KST1 091350Z 18009KT 09/07 A299 RMK A01 T00920066  RH  085%=      5-min Rain = 0
KST1 091355Z 18010KT 09/07 A299 RMK A01 T00940068  RH  085%=      5-min Rain = 0
KST1 091400Z 18011KT 10/07 A2989 RMK A01 T00960069  RH  084%=      5-min Rain = 0
KST1 091405Z 18011KT 10/07 A2989 RMK A01 T00990070  RH  084%=      5-min Rain = 0
KST1 091410Z 18011KT 10/07 A2989 RMK A01 T01010071  RH  083%=      5-min Rain = 0
KST1 091415Z 18012KT 10/07 A2989 RMK A01 T01030072  RH  082%=      5-min Rain = 0
KST1 091420Z 18013KT 11/07 A299 RMK A01 T01050073  RH  082%=      5-min Rain = 0
KST1 091425Z 18012KT 11/07 A299 RMK A01 T01070074  RH  081%=      5-min Rain = 0
KST1 091430Z 18013KT 11/08 A2989 RMK A01 T01100075  RH  080%=      5-min Rain = 0
KST1 091435Z 18014KT 11/07 A2989 RMK A01 T01110074  RH  079%=      5-min Rain = 0
KST1 091440Z 18013G18KT 11/08 A2989 RMK A01 T01130075  RH  078%=      5-min Rain = 0
KST1 091445Z 18015KT 12/08 A299 RMK A01 T01160075  RH  077%=      5-min Rain = 0
KST1 091450Z 18016KT 12/08 A299 RMK A01 T01180075  RH  076%=      5-min Rain = 0
KST1 091455Z 18014KT 12/08 A299 RMK A01 T01200076  RH  075%=      5-min Rain = 0
KST1 091500Z 18015KT 12/08 A299 RMK A01 T01240076  RH  074%=      5-min Rain = 0
KST1 091505Z 18016KT 13/08 A299 RMK A01 T01280076  RH  072%=      5-min Rain = 0
KST1 091510Z 18016KT 13/08 A299 RMK A01 T01300077  RH  071%=      5-min Rain = 0
KST1 091515Z 18014KT 13/08 A299 RMK A01 T01340078  RH  070%=      5-min Rain = 0
KST1 091520Z 18014KT 14/08 A299 RMK A01 T01360078  RH  069%=      5-min Rain = 0
KST1 091525Z 18013KT 13/08 A299 RMK A01 T01340076  RH  069%=      5-min Rain = 0
KST1 091530Z 18014KT 14/08 A299 RMK A01 T01370076  RH  068%=      5-min Rain = 0
KST1 091535Z 18013KT 14/08 A2989 RMK A01 T01390076  RH  067%=      5-min Rain = 0
KST1 091540Z 19014KT 14/08 A2989 RMK A01 T01400075  RH  066%=      5-min Rain = 0
KST1 091545Z 18015KT 15/08 A2989 RMK A01 T01450076  RH  064%=      5-min Rain = 0
KST1 091550Z 19015KT 14/07 A2989 RMK A01 T01430074  RH  064%=      5-min Rain = 0
KST1 091555Z 19014KT 14/07 A2989 RMK A01 T01430072  RH  063%=      5-min Rain = 0
KST1 091600Z 18013KT 15/07 A2989 RMK A01 T01450074  RH  063%=      5-min Rain = 0
KST1 091605Z 19014KT 15/07 A2989 RMK A01 T01480072  RH  061%=      5-min Rain = 0
KST1 091610Z 19015KT 15/07 A2989 RMK A01 T01490072  RH  061%=      5-min Rain = 0
KST1 091615Z 19012KT 15/07 A2989 RMK A01 T01500071  RH  060%=      5-min Rain = 0
KST1 091620Z 19013KT 15/07 A299 RMK A01 T01490070  RH  060%=      5-min Rain = 0
KST1 091625Z 19013KT 15/07 A299 RMK A01 T01490070  RH  060%=      5-min Rain = 0
KST1 091630Z 20012KT 15/07 A299 RMK A01 T01510071  RH  060%=      5-min Rain = 0
KST1 091635Z 19013KT 15/07 A299 RMK A01 T01520071  RH  059%=      5-min Rain = 0
KST1 091640Z 19013KT 15/07 A299 RMK A01 T01530070  RH  058%=      5-min Rain = 0
KST1 091645Z 19011KT 16/07 A299 RMK A01 T01560072  RH  058%=      5-min Rain = 0
KST1 091650Z 19012KT 16/07 A299 RMK A01 T01600071  RH  056%=      5-min Rain = 0
KST1 091655Z 19012KT 17/07 A299 RMK A01 T01650070  RH  054%=      5-min Rain = 0
KST1 091700Z 20011KT 17/07 A299 RMK A01 T01690072  RH  053%=      5-min Rain = 0
KST1 091705Z 20012KT 18/07 A299 RMK A01 T01770073  RH  051%=      5-min Rain = 0
KST1 091710Z 19011KT 18/07 A299 RMK A01 T01800072  RH  050%=      5-min Rain = 0
KST1 091715Z 20011KT 17/07 A299 RMK A01 T01740068  RH  050%=      5-min Rain = 0
KST1 091720Z 19011KT 18/07 A2989 RMK A01 T01780070  RH  050%=      5-min Rain = 0
KST1 091725Z 20012G17KT 18/07 A2989 RMK A01 T01810066  RH  048%=      5-min Rain = 0
KST1 091730Z 20010KT 19/07 A2989 RMK A01 T01880067  RH  046%=      5-min Rain = 0
KST1 091735Z 19012KT 19/07 A2989 RMK A01 T01890065  RH  045%=      5-min Rain = 0
KST1 091740Z 19011KT 19/07 A2988 RMK A01 T01890065  RH  045%=      5-min Rain = 0
KST1 091745Z 19011KT 19/06 A2988 RMK A01 T01920064  RH  044%=      5-min Rain = 0
KST1 091750Z 19011KT 20/06 A2988 RMK A01 T01980064  RH  042%=      5-min Rain = 0
KST1 091755Z 20012KT 20/06 A2988 RMK A01 T01990062  RH  041%=      5-min Rain = 0
KST1 091800Z 20011KT 20/06 A2988 RMK A01 T02030058  RH  039%=      5-min Rain = 0
KST1 091805Z 20011KT 21/06 A2987 RMK A01 T02060058  RH  039%=      5-min Rain = 0
KST1 091810Z 21012KT 21/05 A2987 RMK A01 T02100051  RH  036%=      5-min Rain = 0
KST1 091815Z 21011KT 21/05 A2987 RMK A01 T02130046  RH  034%=      5-min Rain = 0
KST1 091820Z 20012G18KT 21/04 A2986 RMK A01 T02140042  RH  033%=      5-min Rain = 0
KST1 091825Z 20010G15KT 21/04 A2986 RMK A01 T02120040  RH  033%=      5-min Rain = 0
KST1 091830Z 20011KT 22/04 A2985 RMK A01 T02190037  RH  031%=      5-min Rain = 0
KST1 091835Z 20012KT 23/04 A2985 RMK A01 T02280040  RH  030%=      5-min Rain = 0
KST1 091840Z 20012KT 23/04 A2985 RMK A01 T02280037  RH  029%=      5-min Rain = 0
KST1 091845Z 20010G16KT 23/04 A2984 RMK A01 T02300036  RH  029%=      5-min Rain = 0
KST1 091850Z 20011KT 23/03 A2984 RMK A01 T02340033  RH  027%=      5-min Rain = 0
KST1 091855Z 20011KT 23/03 A2984 RMK A01 T02320027  RH  026%=      5-min Rain = 0
KST1 091900Z 20011G18KT 24/03 A2984 RMK A01 T02350027  RH  026%=      5-min Rain = 0
KST1 091905Z 21012G17KT 24/03 A2983 RMK A01 T02370026  RH  025%=      5-min Rain = 0
KST1 091910Z 21012G17KT 24/02 A2983 RMK A01 T02370020  RH  024%=      5-min Rain = 0
KST1 091915Z 22012G18KT 24/02 A2983 RMK A01 T02380016  RH  024%=      5-min Rain = 0
KST1 091920Z 22011G18KT 24/01 A2983 RMK A01 T02400006  RH  022%=      5-min Rain = 0
KST1 091925Z 24011KT 24/M00 A2982 RMK A01 T02441002  RH  020%=      5-min Rain = 0
KST1 091930Z 22011G16KT 25/M00 A2982 RMK A01 T02451004  RH  020%=      5-min Rain = 0
KST1 091935Z 22012G17KT 25/00 A2982 RMK A01 T02490001  RH  020%=      5-min Rain = 0
KST1 091940Z 22012G17KT 25/00 A2982 RMK A01 T02470004  RH  020%=      5-min Rain = 0
KST1 091945Z 21012G17KT 24/00 A2982 RMK A01 T02420002  RH  021%=      5-min Rain = 0
KST1 091950Z 23014KT 25/01 A2982 RMK A01 T02460005  RH  021%=      5-min Rain = 0
KST1 091955Z 24013G18KT 25/M00 A2982 RMK A01 T02481004  RH  019%=      5-min Rain = 0
KST1 092000Z 23013KT 25/M02 A2981 RMK A01 T02491016  RH  017%=      5-min Rain = 0
KST1 092005Z 25013G20KT 25/M04 A2981 RMK A01 T02511042  RH  014%=      5-min Rain = 0
KST1 092010Z 25012KT 25/M05 A2981 RMK A01 T02511045  RH  014%=      5-min Rain = 0
KST1 092015Z 23012G18KT 25/M04 A2981 RMK A01 T02511038  RH  015%=      5-min Rain = 0
KST1 092020Z 22010G15KT 25/M02 A2981 RMK A01 T02481024  RH  017%=      5-min Rain = 0
KST1 092025Z 24012KT 25/M02 A298 RMK A01 T02501016  RH  017%=      5-min Rain = 0
KST1 092030Z 25011G16KT 26/M02 A298 RMK A01 T02561021  RH  016%=      5-min Rain = 0
KST1 092035Z 25011KT 26/M03 A298 RMK A01 T02561031  RH  015%=      5-min Rain = 0
KST1 092040Z 24010G16KT 26/M02 A298 RMK A01 T02591024  RH  016%=      5-min Rain = 0
KST1 092045Z 23010G16KT 26/M02 A298 RMK A01 T02601020  RH  016%=      5-min Rain = 0
KST1 092050Z 25008G13KT 26/M02 A2979 RMK A01 T02601018  RH  016%=      5-min Rain = 0
KST1 092055Z 24008G13KT 26/M02 A2979 RMK A01 T02581017  RH  016%=      5-min Rain = 0
KST1 092100Z 24008KT 26/M02 A2979 RMK A01 T02581019  RH  016%=      5-min Rain = 0
KST1 092105Z 27009G15KT 27/M02 A2979 RMK A01 T02651020  RH  015%=      5-min Rain = 0
KST1 092110Z 23011G16KT 27/M05 A2978 RMK A01 T02671048  RH  012%=      5-min Rain = 0
KST1 092115Z 24010KT 27/M05 A2978 RMK A01 T02661053  RH  012%=      5-min Rain = 0
KST1 092120Z 25012G18KT 27/M06 A2978 RMK A01 T02681063  RH  011%=      5-min Rain = 0
KST1 092125Z 24010KT 27/M07 A2978 RMK A01 T02681071  RH  010%=      5-min Rain = 0
KST1 092130Z 25011G16KT 27/M08 A2978 RMK A01 T02741077  RH  010%=      5-min Rain = 0
KST1 092135Z 25009G16KT 27/M08 A2978 RMK A01 T02681078  RH  010%=      5-min Rain = 0
KST1 092140Z 26012G20KT 27/M08 A2978 RMK A01 T02711080  RH  009%=      5-min Rain = 0
KST1 092145Z 26011G17KT 27/M08 A2978 RMK A01 T02721079  RH  010%=      5-min Rain = 0
KST1 092150Z 24011G16KT 27/M07 A2978 RMK A01 T02741067  RH  010%=      5-min Rain = 0
KST1 092155Z 25012KT 27/M07 A2978 RMK A01 T02721070  RH  010%=      5-min Rain = 0
KST1 092200Z 23016G21KT 28/M06 A2977 RMK A01 T02771060  RH  011%=      5-min Rain = 0
KST1 092205Z 23016G22KT 28/M06 A2977 RMK A01 T02751064  RH  011%=      5-min Rain = 0
KST1 092210Z 24014KT 27/M06 A2977 RMK A01 T02711062  RH  011%=      5-min Rain = 0
KST1 092215Z 23011KT 27/M06 A2977 RMK A01 T02691059  RH  011%=      5-min Rain = 0
KST1 092220Z 25012KT 27/M06 A2977 RMK A01 T02731063  RH  011%=      5-min Rain = 0
KST1 092225Z 24014G20KT 27/M06 A2977 RMK A01 T02711063  RH  011%=      5-min Rain = 0
KST1 092230Z 24014KT 27/M07 A2977 RMK A01 T02711069  RH  010%=      5-min Rain = 0
KST1 092235Z 25012G17KT 27/M08 A2977 RMK A01 T02731076  RH  010%=      5-min Rain = 0
KST1 092240Z 23015G21KT 27/M08 A2976 RMK A01 T02711083  RH  009%=      5-min Rain = 0
KST1 092245Z 24014G20KT 27/M08 A2977 RMK A01 T02681083  RH  009%=      5-min Rain = 0
KST1 092250Z 25013G18KT 27/M08 A2977 RMK A01 T02691084  RH  009%=      5-min Rain = 0
KST1 092255Z 25014KT 27/M09 A2977 RMK A01 T02691092  RH  009%=      5-min Rain = 0
KST1 092300Z 27013G18KT 27/M09 A2976 RMK A01 T02701094  RH  009%=      5-min Rain = 0
KST1 092305Z 26014G20KT 27/M09 A2976 RMK A01 T02691093  RH  009%=      5-min Rain = 0
KST1 092310Z 25014KT 27/M10 A2976 RMK A01 T02661096  RH  009%=      5-min Rain = 0
KST1 092315Z 25012KT 26/M09 A2976 RMK A01 T02631094  RH  009%=      5-min Rain = 0
KST1 092320Z 25013KT 26/M09 A2976 RMK A01 T02611090  RH  009%=      5-min Rain = 0
KST1 092325Z 25013KT 27/M09 A2976 RMK A01 T02661087  RH  009%=      5-min Rain = 0
KST1 092330Z 26010KT 27/M09 A2976 RMK A01 T02671085  RH  009%=      5-min Rain = 0
KST1 092335Z 26011KT 27/M09 A2976 RMK A01 T02661086  RH  009%=      5-min Rain = 0
KST1 092340Z 26012KT 26/M09 A2977 RMK A01 T02601088  RH  010%=      5-min Rain = 0
KST1 092345Z 25010KT 26/M08 A2977 RMK A01 T02591084  RH  010%=      5-min Rain = 0
KST1 092350Z 24010KT 26/M08 A2977 RMK A01 T02551082  RH  010%=      5-min Rain = 0
KST1 092355Z 24009KT 25/M08 A2977 RMK A01 T02521081  RH  010%=      5-min Rain = 0
KST1 100000Z 24010KT 25/M08 A2977 RMK A01 T02541081  RH  010%=      5-min Rain = 0
KST1 100005Z 24009KT 25/M08 A2977 RMK A01 T02521082  RH  010%=      5-min Rain = 0
KST1 100010Z 23009KT 25/M09 A2977 RMK A01 T02521086  RH  010%=      5-min Rain = 0
KST1 100015Z 23008KT 25/M09 A2977 RMK A01 T02501087  RH  010%=      5-min Rain = 0
KST1 100020Z 23008KT 25/M09 A2977 RMK A01 T02461089  RH  010%=      5-min Rain = 0
KST1 100025Z 23007KT 24/M09 A2977 RMK A01 T02431088  RH  010%=      5-min Rain = 0
KST1 100030Z 22008KT 24/M09 A2977 RMK A01 T02391090  RH  011%=      5-min Rain = 0
KST1 100035Z 22008KT 24/M09 A2978 RMK A01 T02371091  RH  011%=      5-min Rain = 0
KST1 100040Z 21006KT 23/M09 A2978 RMK A01 T02311089  RH  011%=      5-min Rain = 0
KST1 100045Z 21006KT 23/M09 A2977 RMK A01 T02341088  RH  011%=      5-min Rain = 0
KST1 100050Z 22007KT 23/M09 A2977 RMK A01 T02261090  RH  011%=      5-min Rain = 0
KST1 100055Z 21008KT 22/M09 A2978 RMK A01 T02171092  RH  012%=      5-min Rain = 0
KST1 100100Z 21009KT 22/M09 A2977 RMK A01 T02171091  RH  012%=      5-min Rain = 0
KST1 100105Z 21008KT 21/M09 A2978 RMK A01 T02091092  RH  013%=      5-min Rain = 0
KST1 100110Z 22008KT 20/M09 A2978 RMK A01 T02021092  RH  013%=      5-min Rain = 0
KST1 100115Z 21008KT 20/M09 A2978 RMK A01 T01961093  RH  013%=      5-min Rain = 0
KST1 100120Z 21008KT 20/M09 A2978 RMK A01 T01971092  RH  013%=      5-min Rain = 0
KST1 100125Z 22009KT 20/M09 A2978 RMK A01 T01991093  RH  013%=      5-min Rain = 0
KST1 100130Z 22009KT 19/M09 A2978 RMK A01 T01941092  RH  014%=      5-min Rain = 0
KST1 100135Z 22009KT 19/M09 A2979 RMK A01 T01911091  RH  014%=      5-min Rain = 0
KST1 100140Z 23008KT 19/M09 A2979 RMK A01 T01901090  RH  014%=      5-min Rain = 0
KST1 100145Z 24008KT 19/M09 A2979 RMK A01 T01861089  RH  015%=      5-min Rain = 0
KST1 100150Z 24008KT 18/M09 A298 RMK A01 T01801089  RH  015%=      5-min Rain = 0
KST1 100155Z 24009KT 18/M09 A298 RMK A01 T01801088  RH  015%=      5-min Rain = 0
KST1 100200Z 24009KT 18/M09 A298 RMK A01 T01791088  RH  016%=      5-min Rain = 0
KST1 100205Z 24009KT 18/M09 A298 RMK A01 T01811088  RH  015%=      5-min Rain = 0
KST1 100210Z 24008KT 18/M09 A298 RMK A01 T01811088  RH  015%=      5-min Rain = 0
KST1 100215Z 24009KT 18/M09 A298 RMK A01 T01811089  RH  015%=      5-min Rain = 0
KST1 100220Z 24008KT 18/M09 A298 RMK A01 T01801089  RH  015%=      5-min Rain = 0
KST1 100225Z 24008KT 18/M09 A298 RMK A01 T01781090  RH  015%=      5-min Rain = 0
KST1 100230Z 24008KT 18/M09 A298 RMK A01 T01761090  RH  016%=      5-min Rain = 0
KST1 100235Z 24008KT 17/M09 A298 RMK A01 T01741091  RH  016%=      5-min Rain = 0
KST1 100240Z 24008KT 17/M09 A298 RMK A01 T01711092  RH  016%=      5-min Rain = 0
KST1 100245Z 24008KT 17/M09 A2981 RMK A01 T01671093  RH  016%=      5-min Rain = 0
KST1 100250Z 24007KT 17/M09 A2981 RMK A01 T01671092  RH  016%=      5-min Rain = 0
KST1 100255Z 24007KT 17/M09 A2981 RMK A01 T01731092  RH  016%=      5-min Rain = 0
KST1 100300Z 23007KT 18/M09 A2981 RMK A01 T01751093  RH  015%=      5-min Rain = 0
KST1 100305Z 22007KT 18/M09 A2981 RMK A01 T01791093  RH  015%=      5-min Rain = 0
KST1 100310Z 20008KT 18/M09 A2981 RMK A01 T01841094  RH  014%=      5-min Rain = 0
KST1 100315Z 18010KT 16/M10 A2981 RMK A01 T01631096  RH  016%=      5-min Rain = 0
KST1 100320Z 17010KT 16/M09 A2982 RMK A01 T01561090  RH  018%=      5-min Rain = 0
KST1 100325Z 17009G14KT 16/M08 A2982 RMK A01 T01631081  RH  018%=      5-min Rain = 0
KST1 100330Z 18009KT 17/M05 A2982 RMK A01 T01681053  RH  022%=      5-min Rain = 0
KST1 100335Z 18009KT 17/M04 A2982 RMK A01 T01721036  RH  024%=      5-min Rain = 0
KST1 100340Z 18010KT 17/M02 A2982 RMK A01 T01711019  RH  028%=      5-min Rain = 0
KST1 100345Z 18010KT 17/01 A2982 RMK A01 T01720007  RH  033%=      5-min Rain = 0
KST1 100350Z 19011KT 18/04 A2982 RMK A01 T01810036  RH  039%=      5-min Rain = 0
KST1 100355Z 19012KT 19/05 A2982 RMK A01 T01870048  RH  040%=      5-min Rain = 0
KST1 100400Z 19012KT 19/05 A2982 RMK A01 T01870051  RH  041%=      5-min Rain = 0
KST1 100405Z 19012KT 19/05 A2982 RMK A01 T01870053  RH  042%=      5-min Rain = 0
KST1 100410Z 19011KT 19/05 A2982 RMK A01 T01850053  RH  042%=      5-min Rain = 0
KST1 100415Z 19012KT 18/05 A2982 RMK A01 T01830053  RH  043%=      5-min Rain = 0
KST1 100420Z 20011G16KT 18/05 A2982 RMK A01 T01820054  RH  044%=      5-min Rain = 0
KST1 100425Z 19014G20KT 18/06 A2982 RMK A01 T01810056  RH  044%=      5-min Rain = 0
KST1 100430Z 19013KT 18/05 A2982 RMK A01 T01770054  RH  045%=      5-min Rain = 0
KST1 100435Z 19013KT 17/05 A2982 RMK A01 T01740054  RH  046%=      5-min Rain = 0
KST1 100440Z 19011KT 17/05 A2982 RMK A01 T01710053  RH  046%=      5-min Rain = 0
KST1 100445Z 19011KT 17/05 A2982 RMK A01 T01690053  RH  047%=      5-min Rain = 0
KST1 100450Z 19010KT 17/05 A2983 RMK A01 T01660053  RH  048%=      5-min Rain = 0
KST1 100455Z 19011KT 17/05 A2982 RMK A01 T01650054  RH  048%=      5-min Rain = 0
KST1 100500Z 19010KT 16/05 A2982 RMK A01 T01630053  RH  049%=      5-min Rain = 0
KST1 100505Z 19009KT 16/05 A2982 RMK A01 T01580051  RH  050%=      5-min Rain = 0
KST1 100510Z 19009KT 16/05 A2982 RMK A01 T01560052  RH  051%=      5-min Rain = 0
KST1 100515Z 18008KT 15/05 A2983 RMK A01 T01530051  RH  051%=      5-min Rain = 0
KST1 100520Z 18009KT 15/05 A2982 RMK A01 T01510050  RH  052%=      5-min Rain = 0
KST1 100525Z 19009KT 15/05 A2982 RMK A01 T01520053  RH  052%=      5-min Rain = 0
KST1 100530Z 20008KT 15/06 A2982 RMK A01 T01530055  RH  053%=      5-min Rain = 0
KST1 100535Z 20008KT 15/06 A2983 RMK A01 T01520056  RH  053%=      5-min Rain = 0
KST1 100540Z 20009KT 15/06 A2983 RMK A01 T01530057  RH  054%=      5-min Rain = 0
KST1 100545Z 20010KT 15/06 A2983 RMK A01 T01530058  RH  054%=      5-min Rain = 0
KST1 100550Z 20009KT 15/06 A2983 RMK A01 T01510058  RH  054%=      5-min Rain = 0
KST1 100555Z 20008KT 15/06 A2983 RMK A01 T01490057  RH  055%=      5-min Rain = 0

Page generated in 0.0098 seconds.